Time;durP1;ratioP1;P1;durP2;ratioP2;P2;SDS_P1;SDS_P2;PMS_P1;PMS_P2;Temp;Humidity;BMP_temperature;BMP_pressure;BME280_temperature;BME280_humidity;BME280_pressure;Samples;Min_cycle;Max_cycle;Signal;HPM_P1;HPM_P2
2024/03/19 00:02:27;;;;;;;4.70;1.40;;;;;;;7.69;66.59;101004.59;5104671;28;20398;-69
2024/03/19 00:04:57;;;;;;;2.42;1.10;;;;;;;7.48;67.25;101010.13;5101761;29;20478;-72
2024/03/19 00:07:27;;;;;;;4.45;1.13;;;;;;;7.57;66.98;101018.69;5101970;29;20046;-74
2024/03/19 00:09:57;;;;;;;4.45;1.23;;;;;;;7.61;67.29;101017.75;5105110;29;20402;-73
2024/03/19 00:12:30;;;;;;;3.60;1.15;;;;;;;7.58;67.10;101010.00;5104968;28;20039;-72
2024/03/19 00:15:00;;;;;;;3.47;1.40;;;;;;;7.67;67.85;101015.03;5105574;29;20039;-72
2024/03/19 00:17:31;;;;;;;3.55;1.00;;;;;;;7.59;67.45;101029.91;5106059;29;20394;-73
2024/03/19 00:20:05;;;;;;;4.18;1.50;;;;;;;7.71;67.84;101021.88;5105935;29;20074;-72
2024/03/19 00:22:36;;;;;;;2.45;1.20;;;;;;;7.72;67.68;101018.41;5107545;28;20050;-72
2024/03/19 00:42:21;;;;;;;3.35;1.30;;;;;;;7.30;68.91;101020.81;5096166;28;20102;-74
2024/03/19 00:44:52;;;;;;;4.28;1.48;;;;;;;7.38;69.30;101030.22;5096212;29;20035;-73
2024/03/19 00:47:22;;;;;;;4.60;1.45;;;;;;;7.40;68.93;101023.28;5097634;28;20038;-71
2024/03/19 00:49:52;;;;;;;3.78;1.58;;;;;;;7.38;70.00;101030.22;5097704;29;20035;-74
2024/03/19 00:52:23;;;;;;;2.83;1.58;;;;;;;7.40;69.71;101025.03;5097032;29;20546;-71
2024/03/19 00:54:53;;;;;;;4.60;2.13;;;;;;;7.35;70.01;101019.88;5097421;28;20053;-73
2024/03/19 00:57:24;;;;;;;6.38;2.30;;;;;;;7.30;69.40;101018.22;5096804;28;20074;-74
2024/03/19 00:59:54;;;;;;;4.78;2.30;;;;;;;7.22;70.34;101026.16;5103393;29;20506;-73
2024/03/19 01:02:24;;;;;;;5.18;1.98;;;;;;;7.21;69.24;101030.50;5102058;29;20035;-70
2024/03/19 01:04:54;;;;;;;4.85;2.10;;;;;;;7.19;69.70;101030.56;5101442;29;20118;-74
2024/03/19 01:07:26;;;;;;;4.65;1.80;;;;;;;7.28;70.60;101028.66;5110677;29;20031;-69
2024/03/19 01:09:56;;;;;;;4.07;1.98;;;;;;;7.17;70.24;101023.66;5111038;29;20034;-72
2024/03/19 01:12:27;;;;;;;4.75;1.98;;;;;;;7.17;70.15;101027.13;5111517;28;20027;-72
2024/03/19 01:14:57;;;;;;;4.00;2.30;;;;;;;7.25;71.15;101032.22;5123712;28;20123;-73
2024/03/19 01:17:27;;;;;;;5.20;1.92;;;;;;;7.26;71.18;101021.78;5109625;28;20023;-72
2024/03/19 01:19:57;;;;;;;5.18;2.00;;;;;;;7.13;71.29;101021.97;5111486;28;20196;-73
2024/03/19 01:22:28;;;;;;;5.53;2.03;;;;;;;7.03;71.76;101018.66;5110457;29;20023;-74
2024/03/19 01:24:58;;;;;;;3.65;1.92;;;;;;;7.09;71.79;101020.31;5137520;28;20031;-74
2024/03/19 01:27:28;;;;;;;4.63;1.90;;;;;;;6.90;71.59;101024.06;5110312;28;20066;-72
2024/03/19 01:29:59;;;;;;;5.15;2.00;;;;;;;6.96;71.10;101023.97;5110540;29;20035;-73
2024/03/19 01:32:29;;;;;;;5.20;1.85;;;;;;;6.90;72.05;101024.06;5109106;28;20023;-72
2024/03/19 01:34:59;;;;;;;7.05;2.00;;;;;;;6.86;72.27;101022.34;5114923;29;20390;-72
2024/03/19 01:37:29;;;;;;;5.15;1.75;;;;;;;6.72;73.57;101013.88;5109711;29;20042;-72
2024/03/19 01:40:01;;;;;;;3.25;1.98;;;;;;;6.70;72.68;101010.44;5108484;29;20126;-73
2024/03/19 01:42:31;;;;;;;5.85;2.00;;;;;;;6.68;73.53;101018.28;5094076;28;20067;-71
2024/03/19 01:45:11;;;;;;;3.92;2.00;;;;;;;6.55;73.51;101005.44;5097844;29;20034;-72
2024/03/19 01:47:42;;;;;;;5.25;2.40;;;;;;;6.52;73.69;101011.56;5104684;29;20169;-72
2024/03/19 01:50:14;;;;;;;6.15;2.30;;;;;;;6.44;73.99;101013.38;5108050;28;20034;-72
2024/03/19 01:52:49;;;;;;;5.25;2.40;;;;;;;6.47;74.20;101012.47;5107010;28;20040;-73
2024/03/19 01:55:22;;;;;;;4.97;2.30;;;;;;;6.54;74.48;101014.13;5107023;29;20030;-72
2024/03/19 01:57:53;;;;;;;5.07;1.90;;;;;;;6.47;74.07;101012.47;5098343;29;20306;-72
2024/03/19 02:00:23;;;;;;;4.53;2.08;;;;;;;6.38;74.18;101013.44;5118746;28;20490;-71
2024/03/19 02:02:54;;;;;;;3.30;2.00;;;;;;;6.47;74.30;101022.88;5102164;29;20073;-71
2024/03/19 02:05:25;;;;;;;5.47;2.33;;;;;;;6.38;74.92;101025.56;5108933;28;20027;-72
2024/03/19 02:07:55;;;;;;;5.00;2.05;;;;;;;6.36;75.08;101019.53;5110263;29;20372;-72
2024/03/19 02:10:25;;;;;;;5.47;2.17;;;;;;;6.42;75.29;101019.47;5108075;28;20039;-72
2024/03/19 02:12:56;;;;;;;7.88;2.22;;;;;;;6.39;75.05;101015.16;5104768;29;20039;-72
2024/03/19 02:15:26;;;;;;;5.15;2.22;;;;;;;6.47;75.75;101013.34;5108573;28;20066;-72
2024/03/19 02:17:57;;;;;;;5.38;2.17;;;;;;;6.43;74.80;101014.25;5104311;28;20042;-73
2024/03/19 02:20:28;;;;;;;5.10;2.10;;;;;;;6.47;74.57;101013.34;5105411;28;20030;-72
2024/03/19 02:22:58;;;;;;;5.80;2.15;;;;;;;6.45;74.99;101009.06;5111312;28;20492;-72
2024/03/19 02:25:28;;;;;;;4.85;2.15;;;;;;;6.44;75.96;101013.38;5108040;28;20043;-71
2024/03/19 02:27:59;;;;;;;5.15;2.38;;;;;;;6.40;75.82;101009.09;5106390;29;20261;-72
2024/03/19 02:30:29;;;;;;;6.30;2.00;;;;;;;6.32;76.21;101013.53;5123811;28;20078;-71
2024/03/19 02:33:00;;;;;;;3.95;2.00;;;;;;;6.37;76.53;101011.72;5110213;28;20035;-72
2024/03/19 02:35:30;;;;;;;2.92;1.77;;;;;;;6.33;77.28;101017.84;5109966;28;20027;-70
2024/03/19 02:38:01;;;;;;;8.32;2.33;;;;;;;6.40;76.92;101008.25;5108454;29;20023;-72
2024/03/19 02:40:31;;;;;;;3.80;2.08;;;;;;;6.32;77.13;101012.66;5109913;28;20705;-73
2024/03/19 02:43:01;;;;;;;9.73;2.15;;;;;;;6.32;77.08;101012.66;5109888;29;20078;-74
2024/03/19 02:45:32;;;;;;;6.15;2.30;;;;;;;6.20;77.39;101011.06;5110769;28;20027;-72
2024/03/19 02:48:02;;;;;;;4.82;1.88;;;;;;;6.18;77.70;101020.59;5112106;29;20595;-72
2024/03/19 02:50:32;;;;;;;3.70;1.95;;;;;;;6.21;77.35;101015.38;5111427;28;20077;-73
2024/03/19 02:53:03;;;;;;;5.82;2.42;;;;;;;6.07;77.32;101013.81;5104499;28;20083;-72
2024/03/19 02:55:33;;;;;;;5.20;2.20;;;;;;;6.03;77.85;101014.69;5108388;28;20027;-72
2024/03/19 02:58:04;;;;;;;5.82;2.10;;;;;;;6.08;77.52;101015.53;5108070;29;20230;-72
2024/03/19 03:00:36;;;;;;;6.45;2.10;;;;;;;6.01;77.23;101011.25;5106759;28;20058;-73
2024/03/19 03:03:06;;;;;;;3.15;1.80;;;;;;;5.82;77.80;101009.72;5111373;28;20136;-74
2024/03/19 03:05:37;;;;;;;5.05;2.40;;;;;;;5.91;78.38;101007.06;5110487;28;20127;-72
2024/03/19 03:08:07;;;;;;;5.15;1.98;;;;;;;5.95;78.19;101001.81;5109489;28;20042;-73
2024/03/19 03:10:39;;;;;;;4.85;1.98;;;;;;;5.97;78.75;101005.28;5108033;28;20509;-73
2024/03/19 03:13:10;;;;;;;6.07;2.08;;;;;;;5.92;77.67;101003.59;5111254;29;20334;-72
2024/03/19 03:15:40;;;;;;;6.07;2.28;;;;;;;5.92;78.52;101006.19;5109795;28;20035;-73
2024/03/19 03:18:10;;;;;;;8.15;2.30;;;;;;;5.94;77.94;101005.28;5108903;28;20114;-73
2024/03/19 03:20:41;;;;;;;5.22;2.10;;;;;;;5.99;78.80;100997.44;5106884;28;20050;-72
2024/03/19 03:23:13;;;;;;;4.93;2.40;;;;;;;6.04;79.09;101011.22;5110285;29;20058;-72
2024/03/19 03:25:44;;;;;;;5.05;2.33;;;;;;;5.93;79.11;101003.56;5107524;28;20066;-71
2024/03/19 03:28:14;;;;;;;8.20;2.35;;;;;;;5.97;78.96;101012.19;5110239;29;20645;-73
2024/03/19 03:30:44;;;;;;;8.57;2.50;;;;;;;6.01;79.52;101016.44;5107250;28;20039;-73
2024/03/19 03:33:15;;;;;;;4.07;2.20;;;;;;;5.91;78.59;101015.69;5109536;28;20031;-73
2024/03/19 03:35:45;;;;;;;6.15;2.35;;;;;;;5.91;78.29;101020.03;5108166;28;20031;-71
2024/03/19 03:38:15;;;;;;;4.93;2.30;;;;;;;5.85;78.53;101007.97;5109288;29;20027;-71
2024/03/19 03:40:46;;;;;;;6.13;2.22;;;;;;;5.94;78.05;101012.22;5106312;28;20025;-70
2024/03/19 03:43:16;;;;;;;4.35;2.22;;;;;;;5.80;78.25;101011.47;5111006;29;20039;-71
2024/03/19 03:45:48;;;;;;;5.88;2.35;;;;;;;5.80;78.36;101011.47;5104499;29;20308;-71
2024/03/19 03:48:19;;;;;;;4.13;2.03;;;;;;;5.89;78.71;101017.44;5105558;28;20063;-72
2024/03/19 03:50:49;;;;;;;5.22;2.20;;;;;;;6.00;79.15;101019.91;5102054;29;20134;-72
2024/03/19 03:53:20;;;;;;;6.28;2.83;;;;;;;6.05;78.96;101028.53;5106935;28;20035;-72
2024/03/19 03:55:50;;;;;;;4.45;2.20;;;;;;;6.05;79.03;101024.19;5106504;29;20039;-73
2024/03/19 03:58:21;;;;;;;6.75;2.22;;;;;;;6.11;79.29;101033.66;5109557;29;20155;-73
2024/03/19 04:00:51;;;;;;;5.13;2.28;;;;;;;5.92;79.29;101029.53;5102735;28;20040;-73
2024/03/19 04:03:21;;;;;;;6.68;2.40;;;;;;;5.92;79.71;101026.94;5108742;29;20042;-72
2024/03/19 04:05:52;;;;;;;5.70;2.58;;;;;;;5.85;79.79;101020.06;5106974;28;20106;-71
2024/03/19 04:08:22;;;;;;;6.15;2.45;;;;;;;5.88;80.23;101025.25;5109836;29;20074;-70
2024/03/19 04:10:53;;;;;;;6.03;2.33;;;;;;;5.80;80.14;101021.84;5106036;28;20038;-70
2024/03/19 04:13:23;;;;;;;5.05;2.38;;;;;;;5.70;81.04;101025.34;5109900;28;20125;-72
2024/03/19 04:15:53;;;;;;;6.72;2.60;;;;;;;5.62;80.51;101021.97;5105844;29;20475;-72
2024/03/19 04:18:24;;;;;;;5.63;2.42;;;;;;;5.56;81.14;101017.72;5121496;28;20122;-72
2024/03/19 04:20:54;;;;;;;4.20;2.13;;;;;;;5.52;80.33;101020.31;5107193;29;20031;-72
2024/03/19 04:23:24;;;;;;;5.30;2.40;;;;;;;5.65;81.91;101024.53;5109566;28;20027;-71
2024/03/19 04:25:55;;;;;;;6.35;2.85;;;;;;;5.58;80.82;101020.31;5105034;29;20118;-72
2024/03/19 04:28:25;;;;;;;6.22;2.80;;;;;;;5.56;80.71;101024.66;5104430;28;20554;-72
2024/03/19 04:30:55;;;;;;;5.78;2.38;;;;;;;5.56;81.39;101020.31;5105946;28;20055;-72
2024/03/19 04:33:25;;;;;;;6.28;2.70;;;;;;;5.58;80.96;101018.56;5108357;29;20023;-71
2024/03/19 04:35:56;;;;;;;6.93;2.47;;;;;;;5.60;81.06;101015.97;5104334;29;20038;-71
2024/03/19 04:38:26;;;;;;;8.65;2.83;;;;;;;5.53;81.03;101016.88;5107689;29;20051;-73
2024/03/19 04:40:56;;;;;;;6.80;2.60;;;;;;;5.57;80.84;101024.59;5102768;29;20023;-72
2024/03/19 04:43:27;;;;;;;7.13;2.40;;;;;;;5.56;80.69;101028.06;5105963;28;20392;-72
2024/03/19 04:45:57;;;;;;;5.07;2.35;;;;;;;5.73;80.40;101023.59;5099634;29;20039;-74
2024/03/19 04:48:27;;;;;;;6.95;2.50;;;;;;;5.74;79.89;101027.91;5104109;28;20051;-72
2024/03/19 04:50:58;;;;;;;5.57;2.65;;;;;;;5.80;80.61;101024.44;5104909;28;20035;-72
2024/03/19 04:53:29;;;;;;;6.00;2.70;;;;;;;5.82;80.24;101022.69;5108271;28;20493;-73
2024/03/19 04:55:59;;;;;;;5.75;2.60;;;;;;;5.68;81.17;101030.56;5104244;29;20039;-71
2024/03/19 04:58:29;;;;;;;6.43;2.83;;;;;;;5.73;81.22;101022.75;5105838;29;20059;-72
2024/03/19 05:01:00;;;;;;;5.63;2.38;;;;;;;5.70;80.66;101017.56;5103980;28;20024;-71
2024/03/19 05:03:30;;;;;;;8.98;2.88;;;;;;;5.75;80.50;101018.41;5106934;28;20054;-72
2024/03/19 05:06:00;;;;;;;6.28;2.65;;;;;;;5.77;79.92;101029.63;5103867;29;20032;-72
2024/03/19 05:08:31;;;;;;;5.88;2.80;;;;;;;5.75;80.87;101034.81;5107073;28;20503;-71
2024/03/19 05:11:01;;;;;;;6.25;2.58;;;;;;;5.90;80.63;101028.69;5104407;28;20032;-72
2024/03/19 05:13:31;;;;;;;6.75;2.88;;;;;;;5.88;80.48;101038.22;5106204;28;20050;-72
2024/03/19 05:16:02;;;;;;;6.00;2.70;;;;;;;5.86;80.10;101037.34;5104232;29;20035;-73
2024/03/19 05:18:32;;;;;;;6.50;2.78;;;;;;;5.86;80.34;101039.94;5105306;28;20023;-73
2024/03/19 05:21:03;;;;;;;5.88;2.80;;;;;;;5.77;80.53;101040.00;5104299;28;20471;-73
2024/03/19 05:23:34;;;;;;;5.88;2.78;;;;;;;5.67;80.49;101049.59;5107093;28;20180;-69
2024/03/19 05:26:07;;;;;;;7.30;3.10;;;;;;;5.64;80.37;101046.16;5103261;29;20031;-72
2024/03/19 05:28:37;;;;;;;6.45;2.70;;;;;;;5.72;81.13;101044.38;5104782;28;20074;-72
2024/03/19 05:31:24;;;;;;;5.15;2.65;;;;;;;5.55;80.92;101043.66;5112544;28;20426;-73
2024/03/19 05:33:56;;;;;;;5.72;2.75;;;;;;;5.68;81.09;101042.66;5102008;29;20043;-74
2024/03/19 05:36:27;;;;;;;6.60;2.72;;;;;;;5.47;81.33;101035.94;5105633;28;20482;-71
2024/03/19 05:38:57;;;;;;;4.90;2.50;;;;;;;5.51;81.46;101048.00;5107176;29;20035;-73
2024/03/19 05:41:27;;;;;;;10.88;3.05;;;;;;;5.38;82.51;101042.06;5106565;28;20094;-71
2024/03/19 05:43:57;;;;;;;9.43;3.35;;;;;;;5.42;82.01;101045.47;5098549;29;20040;-74
2024/03/19 05:46:28;;;;;;;4.80;3.00;;;;;;;5.30;82.56;101039.50;5109523;28;20459;-71
2024/03/19 05:48:59;;;;;;;6.00;3.22;;;;;;;5.35;82.91;101037.75;5105606;28;20126;-72
2024/03/19 05:51:30;;;;;;;8.90;2.80;;;;;;;5.36;82.66;101033.44;5129841;23;20142;-74
2024/03/19 05:54:01;;;;;;;7.63;3.13;;;;;;;5.25;81.77;101041.28;5124281;28;20027;-74
2024/03/19 05:56:31;;;;;;;8.20;3.20;;;;;;;5.31;82.06;101041.22;5125762;28;20482;-74
2024/03/19 05:59:01;;;;;;;7.97;3.10;;;;;;;5.26;81.85;101036.94;5127323;28;20106;-74
2024/03/19 06:01:33;;;;;;;7.75;3.33;;;;;;;5.27;81.90;101041.25;5129495;28;20342;-74
2024/03/19 06:04:04;;;;;;;6.95;3.35;;;;;;;5.37;82.93;101030.84;5124617;28;20110;-75
2024/03/19 06:06:34;;;;;;;9.60;3.60;;;;;;;5.29;81.94;101031.78;5129152;28;20031;-74
2024/03/19 06:09:04;;;;;;;7.60;3.63;;;;;;;5.40;82.59;101036.00;5128247;28;20035;-74
2024/03/19 06:11:34;;;;;;;5.55;2.95;;;;;;;5.27;81.21;101044.72;5125363;28;20022;-75
2024/03/19 06:14:05;;;;;;;9.05;2.78;;;;;;;5.44;81.04;101040.28;5126662;28;20027;-74
2024/03/19 06:16:35;;;;;;;9.25;3.30;;;;;;;5.63;80.95;101040.13;5126097;28;20026;-71
2024/03/19 06:19:06;;;;;;;7.15;3.17;;;;;;;5.69;80.55;101045.25;5123463;28;20031;-73
2024/03/19 06:21:36;;;;;;;6.97;3.05;;;;;;;5.73;79.04;101041.75;5128435;28;20033;-71
2024/03/19 06:24:07;;;;;;;6.75;2.97;;;;;;;5.77;79.53;101032.22;5128078;28;20027;-74
2024/03/19 06:26:38;;;;;;;5.57;2.97;;;;;;;6.07;80.33;101038.00;5124621;28;20069;-71
2024/03/19 06:29:08;;;;;;;5.50;3.00;;;;;;;6.42;80.13;101024.66;5125675;28;20119;-74
2024/03/19 06:31:39;;;;;;;7.53;3.47;;;;;;;6.57;78.96;101030.53;5142260;28;20461;-73
2024/03/19 06:34:09;;;;;;;6.00;3.20;;;;;;;6.94;78.95;101030.91;5125393;28;20023;-74
2024/03/19 06:36:40;;;;;;;8.98;3.30;;;;;;;7.07;78.07;101048.06;5124200;28;20070;-73
2024/03/19 06:39:15;;;;;;;7.75;3.58;;;;;;;7.29;77.69;101043.38;5122790;28;20027;-74
2024/03/19 06:41:45;;;;;;;11.02;3.35;;;;;;;7.37;76.73;101051.06;5122447;28;20036;-73
2024/03/19 06:44:16;;;;;;;7.28;3.67;;;;;;;7.45;77.48;101052.66;5123570;28;20023;-74
2024/03/19 06:46:46;;;;;;;5.32;2.90;;;;;;;7.60;76.63;101052.44;5126039;28;20136;-73
2024/03/19 06:49:17;;;;;;;6.63;3.17;;;;;;;7.71;75.85;101057.47;5143597;28;20031;-74
2024/03/19 06:51:47;;;;;;;7.78;3.00;;;;;;;7.56;75.04;101055.94;5130692;28;20026;-74
2024/03/19 06:54:17;;;;;;;6.28;3.10;;;;;;;7.57;75.44;101062.91;5131840;28;20022;-74
2024/03/19 06:56:48;;;;;;;7.38;3.65;;;;;;;7.46;75.67;101064.78;5127649;28;20046;-72
2024/03/19 06:59:19;;;;;;;6.85;3.55;;;;;;;7.47;75.48;101060.44;5141885;28;20525;-74
2024/03/19 07:01:50;;;;;;;9.32;3.47;;;;;;;7.55;75.78;101059.44;5120089;28;20042;-74
2024/03/19 07:04:21;;;;;;;8.70;4.00;;;;;;;7.58;74.95;101074.13;5128485;28;20030;-74
2024/03/19 07:06:51;;;;;;;7.85;3.63;;;;;;;7.41;75.33;101076.13;5119827;28;20034;-74
2024/03/19 07:09:24;;;;;;;9.30;4.40;;;;;;;7.56;74.79;101084.56;5129215;28;20029;-73
2024/03/19 07:11:54;;;;;;;6.82;3.85;;;;;;;7.65;74.96;101081.81;5142082;28;20039;-71
2024/03/19 07:14:24;;;;;;;7.13;4.00;;;;;;;7.79;74.27;101095.47;5133592;28;20026;-74
2024/03/19 07:16:55;;;;;;;7.10;4.10;;;;;;;7.68;74.44;101102.59;5128766;28;20038;-72
2024/03/19 07:19:25;;;;;;;8.73;4.35;;;;;;;7.65;74.58;101093.97;5129459;28;20164;-74
2024/03/19 07:21:55;;;;;;;10.40;4.88;;;;;;;7.61;74.00;101105.31;5137727;28;20122;-72
2024/03/19 07:24:26;;;;;;;9.32;4.80;;;;;;;7.64;74.76;101103.53;5130846;28;20027;-73
2024/03/19 07:26:56;;;;;;;9.07;4.90;;;;;;;7.78;75.01;101100.69;5129111;28;20122;-73
2024/03/19 07:29:26;;;;;;;9.63;4.88;;;;;;;8.02;74.45;101105.50;5120004;28;20030;-73
2024/03/19 07:31:56;;;;;;;10.20;5.25;;;;;;;8.92;70.63;101106.44;5119514;28;21014;-73
2024/03/19 07:34:27;;;;;;;11.48;5.15;;;;;;;8.37;71.01;101111.84;5040086;28;20166;-71
2024/03/19 07:36:57;;;;;;;8.95;4.78;;;;;;;7.88;72.85;101115.28;5035674;28;20470;-71
2024/03/19 07:39:28;;;;;;;9.50;5.15;;;;;;;7.61;74.49;101119.19;5040001;28;20131;-70
2024/03/19 07:41:59;;;;;;;8.98;4.93;;;;;;;7.53;75.30;101121.00;5037445;28;20759;-71
2024/03/19 07:44:29;;;;;;;14.30;5.70;;;;;;;7.50;75.40;101128.03;5041563;28;20826;-71
2024/03/19 07:46:59;;;;;;;12.35;5.75;;;;;;;7.63;76.40;101130.41;5041401;28;20126;-71
2024/03/19 07:49:29;;;;;;;9.68;5.30;;;;;;;7.53;75.21;101135.78;5040402;28;20055;-71
2024/03/19 07:52:00;;;;;;;8.45;5.15;;;;;;;7.47;75.79;101133.25;5042026;28;20482;-71
2024/03/19 07:54:31;;;;;;;10.95;5.07;;;;;;;7.60;76.01;101134.78;5041401;28;20046;-71
2024/03/19 07:57:01;;;;;;;11.32;5.25;;;;;;;7.80;76.67;101135.34;5038911;28;20035;-70
2024/03/19 07:59:31;;;;;;;12.02;5.40;;;;;;;7.95;76.05;101130.78;5042257;28;20306;-71
2024/03/19 08:02:04;;;;;;;10.40;5.70;;;;;;;7.99;75.27;101135.03;5040073;28;20106;-71
2024/03/19 08:04:34;;;;;;;10.70;5.15;;;;;;;8.24;74.17;101140.75;5041497;28;20549;-71
2024/03/19 08:07:05;;;;;;;8.05;4.75;;;;;;;8.45;72.74;101138.63;5039768;28;20529;-71
2024/03/19 08:09:35;;;;;;;10.35;5.43;;;;;;;8.66;73.80;101143.44;5040324;28;20059;-71
2024/03/19 08:12:06;;;;;;;9.45;5.00;;;;;;;8.76;74.32;101144.13;5039183;28;20098;-71
2024/03/19 08:14:36;;;;;;;8.93;4.45;;;;;;;8.84;72.82;101140.47;5056763;28;20959;-71
2024/03/19 08:17:07;;;;;;;10.25;4.60;;;;;;;8.70;72.76;101147.69;5041530;28;20032;-71
2024/03/19 08:19:38;;;;;;;8.23;4.25;;;;;;;8.66;72.33;101161.69;5044474;28;20039;-71
2024/03/19 08:22:08;;;;;;;8.73;4.57;;;;;;;8.68;73.60;101153.81;5042474;28;20027;-71
2024/03/19 08:24:39;;;;;;;9.43;3.92;;;;;;;8.65;72.27;101159.97;5042968;28;20736;-71
2024/03/19 08:27:10;;;;;;;11.55;4.05;;;;;;;8.74;72.25;101158.94;5042840;28;20087;-71
2024/03/19 08:29:40;;;;;;;12.50;4.47;;;;;;;8.80;73.05;101154.47;5043207;28;22472;-71
2024/03/19 08:32:11;;;;;;;7.43;3.90;;;;;;;8.72;72.71;101156.34;5039078;28;20040;-71
2024/03/19 08:34:41;;;;;;;7.30;3.88;;;;;;;8.78;72.57;101150.16;5042982;28;20723;-71
2024/03/19 08:37:12;;;;;;;7.22;3.90;;;;;;;9.16;73.18;101156.34;5042630;28;20154;-71
2024/03/19 08:39:43;;;;;;;8.07;4.40;;;;;;;9.33;71.93;101149.84;5044397;28;20028;-71
2024/03/19 08:42:13;;;;;;;8.70;4.10;;;;;;;9.57;70.68;101153.69;5044381;28;21276;-71
2024/03/19 08:44:44;;;;;;;9.60;4.25;;;;;;;9.34;71.24;101162.00;5043510;28;20031;-71
2024/03/19 08:47:14;;;;;;;7.70;3.97;;;;;;;9.64;70.33;101153.53;5042519;28;20051;-71
2024/03/19 08:49:44;;;;;;;8.52;3.70;;;;;;;9.57;71.16;101167.59;5100208;28;20122;-74
2024/03/19 08:52:14;;;;;;;8.35;3.70;;;;;;;9.70;71.39;101152.53;5131594;28;20310;-73
2024/03/19 08:54:47;;;;;;;5.60;3.63;;;;;;;9.68;71.01;101154.31;5130136;28;20034;-74
2024/03/19 08:57:18;;;;;;;8.50;4.13;;;;;;;9.64;70.29;101148.28;5129295;28;20023;-74
2024/03/19 08:59:51;;;;;;;7.65;3.97;;;;;;;10.08;70.94;101152.50;5126058;28;20523;-73
2024/03/19 09:02:21;;;;;;;7.80;4.07;;;;;;;10.11;70.27;101153.31;5125988;28;20032;-73
2024/03/19 09:04:51;;;;;;;9.82;3.65;;;;;;;10.25;70.30;101147.72;5141181;28;20027;-73
2024/03/19 09:07:22;;;;;;;11.45;4.13;;;;;;;10.86;68.78;101138.22;5132997;28;20027;-74
2024/03/19 09:09:52;;;;;;;6.65;3.80;;;;;;;11.35;66.44;101139.41;5125776;28;20035;-74
2024/03/19 09:12:22;;;;;;;10.18;3.88;;;;;;;11.74;65.44;101140.84;5123255;28;20394;-74
2024/03/19 09:14:53;;;;;;;9.32;4.28;;;;;;;11.71;65.09;101138.31;5126321;28;20493;-74
2024/03/19 09:17:23;;;;;;;6.57;3.40;;;;;;;12.66;62.91;101143.00;5126806;28;20263;-74
2024/03/19 09:19:53;;;;;;;6.10;3.35;;;;;;;12.96;63.55;101137.53;5131338;28;20035;-74
2024/03/19 09:22:24;;;;;;;6.13;3.67;;;;;;;12.67;62.36;101145.53;5134039;28;20023;-74
2024/03/19 09:24:55;;;;;;;6.00;3.47;;;;;;;12.36;63.17;101146.66;5129969;28;20049;-74
2024/03/19 09:27:25;;;;;;;9.07;3.70;;;;;;;11.90;64.19;101139.44;5131079;28;20039;-73
2024/03/19 09:29:56;;;;;;;10.32;3.70;;;;;;;11.72;65.32;101149.63;5123023;28;20035;-73
2024/03/19 09:32:26;;;;;;;9.77;3.90;;;;;;;11.44;64.94;101154.81;5134294;28;20022;-74
2024/03/19 09:34:56;;;;;;;8.25;4.00;;;;;;;11.57;65.99;101153.59;5131502;28;20116;-74
2024/03/19 09:37:27;;;;;;;9.65;4.40;;;;;;;11.47;66.37;101141.63;5133460;28;20394;-74
2024/03/19 09:39:58;;;;;;;8.10;3.42;;;;;;;11.29;67.46;101136.97;5132230;28;20125;-74
2024/03/19 09:42:28;;;;;;;8.02;3.83;;;;;;;11.26;68.79;101136.22;5128775;28;20486;-74
2024/03/19 09:44:59;;;;;;;9.45;3.88;;;;;;;11.37;67.26;101135.00;5132569;28;20034;-74
2024/03/19 09:47:32;;;;;;;7.45;4.20;;;;;;;11.68;67.98;101135.81;5133336;28;20114;-74
2024/03/19 09:50:03;;;;;;;10.70;3.95;;;;;;;11.87;65.79;101131.69;5131173;28;20043;-72
2024/03/19 09:52:34;;;;;;;11.20;4.22;;;;;;;11.71;67.66;101133.09;5134364;28;20307;-75
2024/03/19 09:55:06;;;;;;;11.20;4.20;;;;;;;11.66;66.69;101135.00;5133695;28;20038;-75
2024/03/19 09:57:36;;;;;;;9.20;4.00;;;;;;;11.12;68.63;101140.97;5134789;28;20399;-74
2024/03/19 10:00:32;;;;;;;9.55;4.10;;;;;;;11.17;68.41;101132.09;5128958;28;20051;-73
2024/03/19 10:03:03;;;;;;;8.75;4.07;;;;;;;11.53;67.99;101138.84;5130637;28;20235;-74
2024/03/19 10:05:33;;;;;;;8.80;4.00;;;;;;;11.79;68.83;101125.84;5132336;28;20039;-74
2024/03/19 10:08:05;;;;;;;7.30;4.30;;;;;;;11.72;68.35;101128.69;5134908;28;20027;-72
2024/03/19 10:10:35;;;;;;;6.47;3.90;;;;;;;11.63;67.56;101124.59;5134165;28;20387;-73
2024/03/19 10:13:10;;;;;;;7.97;4.30;;;;;;;11.63;67.29;101127.22;5132439;28;20034;-74
2024/03/19 10:15:41;;;;;;;7.13;4.63;;;;;;;11.40;67.48;101124.41;5129340;28;20038;-74
2024/03/19 10:18:12;;;;;;;7.57;4.22;;;;;;;11.22;68.50;101121.47;5131562;28;20513;-74
2024/03/19 10:20:42;;;;;;;9.27;4.43;;;;;;;10.98;68.95;101121.31;5132413;28;20035;-74
2024/03/19 10:23:13;;;;;;;8.82;4.40;;;;;;;11.57;69.62;101119.56;5126834;28;20241;-74
2024/03/19 10:25:51;;;;;;;8.48;4.35;;;;;;;11.61;69.28;101121.19;5131743;28;20026;-72
2024/03/19 10:28:21;;;;;;;8.05;4.32;;;;;;;11.61;69.26;101118.56;5123870;28;20190;-74
2024/03/19 10:30:52;;;;;;;7.50;4.20;;;;;;;11.66;68.71;101124.53;5130761;28;20029;-74
2024/03/19 10:33:23;;;;;;;8.25;4.40;;;;;;;11.91;68.48;101128.06;5133541;28;20116;-72
2024/03/19 10:35:56;;;;;;;13.13;4.53;;;;;;;11.94;67.14;101124.50;5132186;28;20038;-74
2024/03/19 10:38:27;;;;;;;8.50;4.63;;;;;;;12.17;68.96;101115.00;5143918;28;20023;-74
2024/03/19 10:40:57;;;;;;;11.15;4.50;;;;;;;12.45;67.94;101118.38;5129684;28;20375;-72
2024/03/19 10:43:28;;;;;;;8.30;4.25;;;;;;;12.54;67.77;101112.81;5133622;28;20077;-74
2024/03/19 10:45:59;;;;;;;7.85;4.28;;;;;;;12.70;67.32;101119.25;5130487;28;20189;-72
2024/03/19 10:48:30;;;;;;;9.00;4.18;;;;;;;12.71;66.48;101106.97;5135601;28;20133;-73
2024/03/19 10:51:00;;;;;;;9.77;5.10;;;;;;;12.67;67.69;101116.69;5130395;28;20066;-73
2024/03/19 10:53:31;;;;;;;8.27;4.20;;;;;;;12.82;67.02;101113.53;5130563;28;20140;-73
2024/03/19 10:56:04;;;;;;;8.25;4.28;;;;;;;12.55;67.82;101118.91;5130187;28;20035;-74
2024/03/19 10:58:36;;;;;;;8.75;4.50;;;;;;;12.80;68.13;101110.13;5131853;28;20037;-74
2024/03/19 11:01:08;;;;;;;7.53;4.53;;;;;;;12.69;69.20;101109.66;5130607;28;20027;-74
2024/03/19 11:03:40;;;;;;;8.32;4.78;;;;;;;12.36;69.40;101107.34;5129976;28;20505;-74
2024/03/19 11:06:21;;;;;;;9.40;5.25;;;;;;;12.61;68.62;101111.69;5128012;28;20054;-74
2024/03/19 11:08:53;;;;;;;8.65;4.65;;;;;;;12.98;68.98;101104.22;5124010;28;20031;-74
2024/03/19 11:11:35;;;;;;;10.48;5.18;;;;;;;13.06;67.80;101112.69;5130998;28;20020;-74
2024/03/19 11:14:05;;;;;;;6.38;4.40;;;;;;;13.41;67.76;101107.81;5133166;28;20039;-75
2024/03/19 11:16:39;;;;;;;9.23;5.28;;;;;;;13.54;67.62;101121.34;5141410;28;20576;-74
2024/03/19 11:19:20;;;;;;;9.23;4.85;;;;;;;13.20;67.10;101115.66;5127121;28;20054;-73
2024/03/19 11:21:56;;;;;;;10.55;5.03;;;;;;;13.29;67.16;101120.53;5129464;28;20062;-74
2024/03/19 11:24:28;;;;;;;10.02;4.93;;;;;;;13.00;68.57;101112.91;5129246;28;20015;-75
2024/03/19 11:27:00;;;;;;;8.77;4.90;;;;;;;12.85;69.37;101117.81;5134520;28;20066;-74
2024/03/19 11:29:33;;;;;;;7.97;4.93;;;;;;;13.36;68.99;101107.13;5130933;28;20033;-74
2024/03/19 11:32:07;;;;;;;9.65;4.82;;;;;;;13.69;68.70;101105.81;5133508;28;20089;-73
2024/03/19 11:34:38;;;;;;;8.30;4.93;;;;;;;13.57;66.91;101094.94;5150851;28;20030;-74
2024/03/19 11:37:09;;;;;;;11.88;5.45;;;;;;;13.67;66.66;101096.28;5126418;28;20479;-74
2024/03/19 11:39:40;;;;;;;11.43;5.70;;;;;;;12.97;68.52;101096.44;5126412;28;20038;-74
2024/03/19 11:42:11;;;;;;;9.32;4.90;;;;;;;13.16;70.00;101093.03;5129650;28;20034;-73
2024/03/19 11:44:42;;;;;;;9.05;4.60;;;;;;;13.01;67.31;101098.84;5130140;28;20105;-74
2024/03/19 11:47:13;;;;;;;9.77;4.85;;;;;;;13.31;69.27;101092.47;5132682;28;20042;-74
2024/03/19 11:49:43;;;;;;;12.27;4.97;;;;;;;13.30;68.76;101099.50;5127487;28;20122;-74
2024/03/19 11:52:15;;;;;;;9.00;4.90;;;;;;;13.24;68.89;101091.00;5160058;23;20586;-72
2024/03/19 11:54:45;;;;;;;11.73;5.25;;;;;;;13.76;69.11;101090.66;5124536;28;20027;-72
2024/03/19 11:57:16;;;;;;;10.13;5.47;;;;;;;13.66;69.58;101091.94;5132226;28;20046;-72
2024/03/19 11:59:47;;;;;;;9.32;4.82;;;;;;;13.70;66.94;101083.00;5128874;28;20450;-69
2024/03/19 12:02:17;;;;;;;11.45;5.40;;;;;;;13.77;68.14;101087.13;5130816;28;20027;-73
2024/03/19 12:04:47;;;;;;;9.88;5.18;;;;;;;13.83;67.02;101089.50;5129448;28;20042;-70